createdAt,value
2022-09-15T00:00:50.096Z,17.60
2022-09-15T00:03:37.220Z,17.60
2022-09-15T00:06:11.647Z,17.60
2022-09-15T00:08:42.625Z,17.60
2022-09-15T00:11:17.845Z,17.60
2022-09-15T00:13:49.103Z,17.60
2022-09-15T00:16:20.788Z,17.60
2022-09-15T00:18:52.237Z,17.60
2022-09-15T00:21:26.753Z,17.60
2022-09-15T00:23:57.886Z,17.60
2022-09-15T00:26:30.309Z,17.60
2022-09-15T00:29:01.694Z,17.60
2022-09-15T00:31:33.701Z,17.60
2022-09-15T00:34:06.410Z,17.60
2022-09-15T00:36:40.122Z,17.60
2022-09-15T00:39:10.899Z,17.60
2022-09-15T00:41:42.261Z,17.60
2022-09-15T00:44:27.772Z,17.60
2022-09-15T00:47:18.298Z,17.60
2022-09-15T00:49:53.924Z,17.60
2022-09-15T00:52:31.004Z,17.60
2022-09-15T00:55:03.846Z,17.60
2022-09-15T00:57:37.026Z,17.60
2022-09-15T01:00:11.419Z,17.60
2022-09-15T01:02:45.361Z,17.60
2022-09-15T01:05:18.137Z,17.60
2022-09-15T01:07:53.988Z,17.60
2022-09-15T01:10:26.333Z,17.60
2022-09-15T01:12:59.572Z,17.60
2022-09-15T01:15:34.799Z,17.50
2022-09-15T01:18:11.700Z,17.60
2022-09-15T01:20:57.328Z,17.60
2022-09-15T01:23:38.370Z,17.50
2022-09-15T01:26:21.979Z,17.60
2022-09-15T01:29:07.773Z,17.60
2022-09-15T01:32:03.913Z,17.50
2022-09-15T01:34:34.955Z,17.60
2022-09-15T01:37:07.998Z,17.60
2022-09-15T01:39:41.253Z,17.60
2022-09-15T01:42:13.591Z,17.60
2022-09-15T01:44:46.269Z,17.50
2022-09-15T01:47:21.417Z,17.50
2022-09-15T01:49:53.736Z,17.60
2022-09-15T01:52:26.428Z,17.60
2022-09-15T01:54:58.691Z,17.60
2022-09-15T01:57:30.333Z,17.50
2022-09-15T02:00:02.387Z,17.50
2022-09-15T02:02:40.783Z,17.50
2022-09-15T02:05:16.731Z,17.60
2022-09-15T02:07:50.525Z,17.50
2022-09-15T02:10:23.374Z,17.50
2022-09-15T02:12:57.793Z,17.50
2022-09-15T02:15:33.558Z,17.50
2022-09-15T02:18:10.352Z,17.60
2022-09-15T02:20:43.967Z,17.50
2022-09-15T02:23:17.833Z,17.50
2022-09-15T02:25:51.901Z,17.50
2022-09-15T02:28:25.181Z,17.50
2022-09-15T02:30:57.137Z,17.50
2022-09-15T02:33:32.802Z,17.60
2022-09-15T02:36:05.256Z,17.50
2022-09-15T02:38:38.001Z,17.50
2022-09-15T02:41:09.265Z,17.50
2022-09-15T02:43:47.247Z,17.50
2022-09-15T02:46:19.445Z,17.60
2022-09-15T02:48:53.499Z,17.50
2022-09-15T02:51:24.684Z,17.50
2022-09-15T02:53:55.405Z,17.60
2022-09-15T02:56:26.371Z,17.60
2022-09-15T02:59:15.392Z,17.60
2022-09-15T03:01:46.583Z,17.50
2022-09-15T03:04:20.051Z,17.50
2022-09-15T03:06:51.097Z,17.60
2022-09-15T03:09:21.743Z,17.50
2022-09-15T03:11:52.772Z,17.50
2022-09-15T03:14:24.242Z,17.60
2022-09-15T03:16:55.716Z,17.60
2022-09-15T03:19:29.142Z,17.60
2022-09-15T03:22:00.393Z,17.60
2022-09-15T03:24:31.202Z,17.60
2022-09-15T03:27:02.301Z,17.60
2022-09-15T03:29:33.531Z,17.60
2022-09-15T03:32:05.137Z,17.60
2022-09-15T03:34:38.465Z,17.60
2022-09-15T03:37:09.766Z,17.60
2022-09-15T03:39:40.579Z,17.60
2022-09-15T03:42:19.619Z,17.60
2022-09-15T03:44:50.322Z,17.60
2022-09-15T03:47:21.309Z,17.60
2022-09-15T03:49:55.501Z,17.60
2022-09-15T03:52:26.614Z,17.60
2022-09-15T03:54:57.291Z,17.60
2022-09-15T03:57:28.277Z,17.60
2022-09-15T03:59:59.074Z,17.60
2022-09-15T04:02:30.146Z,17.60
2022-09-15T04:05:03.817Z,17.60
2022-09-15T04:07:34.920Z,17.60
2022-09-15T04:10:05.722Z,17.60
2022-09-15T04:12:37.069Z,17.60
2022-09-15T04:15:08.263Z,17.60
2022-09-15T04:17:39.347Z,17.60
2022-09-15T04:20:13.183Z,17.60
2022-09-15T04:22:44.200Z,17.60
2022-09-15T04:25:14.998Z,17.60
2022-09-15T04:27:46.467Z,17.60
2022-09-15T04:30:17.245Z,17.60
2022-09-15T04:32:48.338Z,17.60
2022-09-15T04:35:22.123Z,17.60
2022-09-15T04:37:53.261Z,17.60
2022-09-15T04:40:24.049Z,17.60
2022-09-15T04:42:55.131Z,17.60
2022-09-15T04:45:25.819Z,17.60
2022-09-15T04:47:56.878Z,17.60
2022-09-15T04:50:30.250Z,17.60
2022-09-15T04:53:06.313Z,17.60
2022-09-15T04:55:37.334Z,17.60
2022-09-15T04:58:08.736Z,17.60
2022-09-15T05:00:43.225Z,17.60
2022-09-15T05:03:14.683Z,17.60
2022-09-15T05:05:47.964Z,17.60
2022-09-15T05:08:19.707Z,17.60
2022-09-15T05:10:50.701Z,17.60
2022-09-15T05:13:21.670Z,17.60
2022-09-15T05:15:52.543Z,17.60
2022-09-15T05:18:23.707Z,17.60
2022-09-15T05:21:03.805Z,17.60
2022-09-15T05:23:36.034Z,17.60
2022-09-15T05:26:08.106Z,17.60
2022-09-15T05:28:39.919Z,17.60
2022-09-15T05:31:11.252Z,17.60
2022-09-15T05:33:42.725Z,17.60
2022-09-15T05:36:17.550Z,17.60
2022-09-15T05:38:48.712Z,17.60
2022-09-15T05:41:21.081Z,17.60
2022-09-15T05:43:52.802Z,17.60
2022-09-15T05:46:26.185Z,17.60
2022-09-15T05:48:58.876Z,17.60
2022-09-15T05:51:32.905Z,17.60
2022-09-15T05:54:03.961Z,17.60
2022-09-15T05:56:34.794Z,17.60
2022-09-15T05:59:05.940Z,17.60
2022-09-15T06:01:36.730Z,17.60
2022-09-15T06:04:07.818Z,17.60
2022-09-15T06:06:41.187Z,17.60
2022-09-15T06:09:12.307Z,17.50
2022-09-15T06:11:43.138Z,17.50
2022-09-15T06:14:14.893Z,17.50
2022-09-15T06:16:45.976Z,17.50
2022-09-15T06:19:17.092Z,17.40
2022-09-15T06:21:51.122Z,17.40
2022-09-15T06:24:23.316Z,17.50
2022-09-15T06:26:54.198Z,17.50
2022-09-15T06:29:25.333Z,17.50
2022-09-15T06:31:57.294Z,17.50
2022-09-15T06:34:28.829Z,17.40
2022-09-15T06:37:02.325Z,17.50
2022-09-15T06:39:33.312Z,17.40
2022-09-15T06:42:05.699Z,17.40
2022-09-15T06:44:38.781Z,17.40
2022-09-15T06:47:10.877Z,17.40
2022-09-15T06:49:41.878Z,17.40
2022-09-15T06:52:15.189Z,17.50
2022-09-15T06:54:46.252Z,17.40
2022-09-15T06:57:17.003Z,17.40
2022-09-15T06:59:48.039Z,17.50
2022-09-15T07:02:18.990Z,17.40
2022-09-15T07:04:50.285Z,17.40
2022-09-15T07:07:23.689Z,17.50
2022-09-15T07:09:54.768Z,17.40
2022-09-15T07:12:25.539Z,17.40
2022-09-15T07:14:56.533Z,17.40
2022-09-15T07:17:27.624Z,17.40
2022-09-15T07:19:58.642Z,17.40
2022-09-15T07:22:32.267Z,17.50
2022-09-15T07:25:03.353Z,17.40
2022-09-15T07:27:34.362Z,17.50
2022-09-15T07:30:08.697Z,17.40
2022-09-15T07:32:39.456Z,17.50
2022-09-15T07:35:10.862Z,17.50
2022-09-15T07:37:44.896Z,17.50
2022-09-15T07:40:15.959Z,17.50
2022-09-15T07:42:47.042Z,17.50
2022-09-15T07:45:18.474Z,17.50
2022-09-15T07:47:49.362Z,17.50
2022-09-15T07:50:20.643Z,17.50
2022-09-15T07:52:54.076Z,17.50
2022-09-15T07:55:25.147Z,17.50
2022-09-15T07:58:02.038Z,17.50
2022-09-15T08:00:33.145Z,17.50
2022-09-15T08:03:04.016Z,17.60
2022-09-15T08:05:39.421Z,17.60
2022-09-15T08:08:14.673Z,17.60
2022-09-15T08:10:45.762Z,17.50
2022-09-15T08:13:16.617Z,17.60
2022-09-15T08:15:48.203Z,17.60
2022-09-15T08:18:19.599Z,17.60
2022-09-15T08:20:50.717Z,17.60
2022-09-15T08:23:24.169Z,17.60
2022-09-15T08:25:55.193Z,17.60
2022-09-15T08:28:26.321Z,17.60
2022-09-15T08:31:04.100Z,17.60
2022-09-15T08:33:35.218Z,17.60
2022-09-15T08:36:07.779Z,17.60
2022-09-15T08:38:41.737Z,17.60
2022-09-15T08:41:15.150Z,17.60
2022-09-15T08:43:49.117Z,17.60
2022-09-15T08:46:22.977Z,17.60
2022-09-15T08:49:00.769Z,17.70
2022-09-15T08:51:37.157Z,17.70
2022-09-15T08:54:14.879Z,17.70
2022-09-15T08:56:46.269Z,17.70
2022-09-15T08:59:17.706Z,17.70
2022-09-15T09:01:55.607Z,17.70
2022-09-15T09:04:41.325Z,17.70
2022-09-15T09:07:18.873Z,17.70
2022-09-15T09:09:55.603Z,17.70
2022-09-15T09:12:35.537Z,17.70
2022-09-15T09:15:10.403Z,17.80
2022-09-15T09:17:47.512Z,17.70
2022-09-15T09:20:27.324Z,17.70
2022-09-15T09:22:59.359Z,17.80
2022-09-15T09:25:32.862Z,17.80
2022-09-15T09:28:06.048Z,17.80
2022-09-15T09:30:37.973Z,17.80
2022-09-15T09:33:18.493Z,17.80
2022-09-15T09:35:51.687Z,17.80
2022-09-15T09:38:23.893Z,17.80
2022-09-15T09:41:02.059Z,17.80
2022-09-15T09:43:34.375Z,17.80
2022-09-15T09:46:05.563Z,17.90
2022-09-15T09:48:37.565Z,17.90
2022-09-15T09:51:28.471Z,17.90
2022-09-15T09:54:00.250Z,17.90
2022-09-15T09:56:33.782Z,17.90
2022-09-15T09:59:05.078Z,17.90
2022-09-15T10:01:35.813Z,18.00
2022-09-15T10:04:14.644Z,18.00
2022-09-15T10:06:45.371Z,18.00
2022-09-15T10:09:18.456Z,18.00
2022-09-15T10:11:53.291Z,18.00
2022-09-15T10:14:25.456Z,18.00
2022-09-15T10:17:00.515Z,18.00
2022-09-15T10:19:33.265Z,18.10
2022-09-15T10:22:04.673Z,18.10
2022-09-15T10:24:36.915Z,18.00
2022-09-15T10:27:25.676Z,18.10
2022-09-15T10:30:01.905Z,18.10
2022-09-15T10:32:33.444Z,18.10
2022-09-15T10:35:05.547Z,18.10
2022-09-15T10:37:40.979Z,18.20
2022-09-15T10:40:20.605Z,18.20
2022-09-15T10:42:53.115Z,18.20
2022-09-15T10:45:35.432Z,18.20
2022-09-15T10:48:12.869Z,18.20
2022-09-15T10:50:50.552Z,18.20
2022-09-15T10:53:26.283Z,18.20
2022-09-15T10:56:01.253Z,18.20
2022-09-15T10:58:43.485Z,18.20
2022-09-15T11:01:33.565Z,18.30
2022-09-15T11:04:16.700Z,18.20
2022-09-15T11:06:50.818Z,18.30
2022-09-15T11:09:23.399Z,18.30
2022-09-15T11:12:19.242Z,18.30
2022-09-15T11:14:55.615Z,18.30
2022-09-15T11:17:38.131Z,18.30
2022-09-15T11:20:20.986Z,18.30
2022-09-15T11:22:55.926Z,18.30
2022-09-15T11:25:48.154Z,18.30
2022-09-15T11:28:22.871Z,18.30
2022-09-15T11:30:59.193Z,18.30
2022-09-15T11:33:35.426Z,18.30
2022-09-15T11:36:09.738Z,18.30
2022-09-15T11:38:48.119Z,18.30
2022-09-15T11:41:23.338Z,18.30
2022-09-15T11:43:58.260Z,18.30
2022-09-15T11:46:32.781Z,18.30
2022-09-15T11:49:09.856Z,18.30
2022-09-15T11:51:43.404Z,18.30
2022-09-15T11:54:16.540Z,18.30
2022-09-15T11:56:49.566Z,18.30
2022-09-15T11:59:26.033Z,18.30
2022-09-15T12:02:00.636Z,18.40
2022-09-15T12:04:36.244Z,18.30
2022-09-15T12:07:11.115Z,18.30
2022-09-15T12:09:45.738Z,18.40
2022-09-15T12:12:18.127Z,18.40
2022-09-15T12:14:50.415Z,18.30
2022-09-15T12:17:24.991Z,18.30
2022-09-15T12:20:03.176Z,18.30
2022-09-15T12:22:37.899Z,18.30
2022-09-15T12:25:14.775Z,18.30
2022-09-15T12:27:45.752Z,18.30
2022-09-15T12:30:31.800Z,18.30
2022-09-15T12:33:02.606Z,18.30
2022-09-15T12:35:36.346Z,18.30
2022-09-15T12:38:07.126Z,18.30
2022-09-15T12:40:39.062Z,18.30
2022-09-15T12:43:20.840Z,18.30
2022-09-15T12:45:57.303Z,18.30
2022-09-15T12:48:30.148Z,18.30
2022-09-15T12:51:05.093Z,18.30
2022-09-15T12:53:37.824Z,18.30
2022-09-15T12:56:10.608Z,18.20
2022-09-15T12:58:42.685Z,18.30
2022-09-15T13:01:28.838Z,18.30
2022-09-15T13:04:14.588Z,18.30
2022-09-15T13:07:09.803Z,18.20
2022-09-15T13:09:46.672Z,18.10
2022-09-15T13:12:20.152Z,18.20
2022-09-15T13:14:51.941Z,18.20
2022-09-15T13:17:24.777Z,18.20
2022-09-15T13:19:56.804Z,18.20
2022-09-15T13:22:33.197Z,18.20
2022-09-15T13:25:07.454Z,18.20
2022-09-15T13:27:39.568Z,18.20
2022-09-15T13:30:16.514Z,18.20
2022-09-15T13:32:53.062Z,18.20
2022-09-15T13:35:43.459Z,18.20
2022-09-15T13:38:32.133Z,18.20
2022-09-15T13:41:18.389Z,18.20
2022-09-15T13:44:07.223Z,18.20
2022-09-15T13:46:43.106Z,18.10
2022-09-15T13:49:24.877Z,18.10
2022-09-15T13:51:59.960Z,18.10
2022-09-15T13:54:33.709Z,18.10
2022-09-15T13:57:04.942Z,18.10
2022-09-15T13:59:36.588Z,18.10
2022-09-15T14:02:12.259Z,18.10
2022-09-15T14:04:43.737Z,18.10
2022-09-15T14:07:22.447Z,18.10
2022-09-15T14:09:59.343Z,18.10
2022-09-15T14:12:31.345Z,18.10
2022-09-15T14:15:03.281Z,18.10
2022-09-15T14:17:35.546Z,18.10
2022-09-15T14:20:09.020Z,18.10
2022-09-15T14:22:43.744Z,18.10
2022-09-15T14:25:19.868Z,18.10
2022-09-15T14:27:52.035Z,18.10
2022-09-15T14:30:24.532Z,18.10
2022-09-15T14:32:56.604Z,18.10
2022-09-15T14:35:29.930Z,18.10
2022-09-15T14:38:02.382Z,18.10
2022-09-15T14:40:38.372Z,18.10
2022-09-15T14:43:24.135Z,18.10
2022-09-15T14:46:07.292Z,18.10
2022-09-15T14:48:40.264Z,18.10
2022-09-15T14:51:20.949Z,18.10
2022-09-15T14:53:52.450Z,18.10
2022-09-15T14:56:27.902Z,18.10
2022-09-15T14:58:59.789Z,18.10
2022-09-15T15:01:35.460Z,18.10
2022-09-15T15:04:10.430Z,18.10
2022-09-15T15:06:42.714Z,18.00
2022-09-15T15:09:21.447Z,18.00
2022-09-15T15:11:56.435Z,18.00
2022-09-15T15:14:27.313Z,18.00
2022-09-15T15:17:01.203Z,17.90
2022-09-15T15:19:36.070Z,17.90
2022-09-15T15:22:11.281Z,17.90
2022-09-15T15:24:43.873Z,17.90
2022-09-15T15:27:29.845Z,17.90
2022-09-15T15:30:23.400Z,17.80
2022-09-15T15:32:54.987Z,17.80
2022-09-15T15:35:26.400Z,17.80
2022-09-15T15:38:05.263Z,17.70
2022-09-15T15:40:36.656Z,17.80
2022-09-15T15:43:08.640Z,17.80
2022-09-15T15:45:51.217Z,17.70
2022-09-15T15:48:22.285Z,17.80
2022-09-15T15:50:53.174Z,17.80
2022-09-15T15:53:24.242Z,17.80
2022-09-15T15:55:55.500Z,17.80
2022-09-15T15:58:26.633Z,17.80
2022-09-15T16:01:00.316Z,17.80
2022-09-15T16:03:31.461Z,17.80
2022-09-15T16:06:03.190Z,17.80
2022-09-15T16:08:38.189Z,17.80
2022-09-15T16:11:12.138Z,17.80
2022-09-15T16:13:43.475Z,17.80
2022-09-15T16:16:18.143Z,17.80
2022-09-15T16:18:50.264Z,17.80
2022-09-15T16:21:22.496Z,17.80
2022-09-15T16:23:53.597Z,17.80
2022-09-15T16:26:25.693Z,17.80
2022-09-15T16:28:57.409Z,17.80
2022-09-15T16:31:30.956Z,17.80
2022-09-15T16:34:02.620Z,17.80
2022-09-15T16:36:33.994Z,17.80
2022-09-15T16:39:05.297Z,17.80
2022-09-15T16:41:39.291Z,17.70
2022-09-15T16:44:18.821Z,17.80
2022-09-15T16:46:53.005Z,17.80
2022-09-15T16:49:24.168Z,17.70
2022-09-15T16:51:54.976Z,17.70
2022-09-15T16:54:26.031Z,17.70
2022-09-15T16:56:57.064Z,17.70
2022-09-15T16:59:28.284Z,17.70
2022-09-15T17:02:01.880Z,17.70
2022-09-15T17:04:33.034Z,17.70
2022-09-15T17:07:03.838Z,17.70
2022-09-15T17:09:34.955Z,17.70
2022-09-15T17:12:06.195Z,17.60
2022-09-15T17:14:37.248Z,17.60
2022-09-15T17:17:25.029Z,17.50
2022-09-15T17:19:56.260Z,17.50
2022-09-15T17:22:27.347Z,17.50
2022-09-15T17:24:58.508Z,17.50
2022-09-15T17:27:29.606Z,17.50
2022-09-15T17:30:01.262Z,17.60
2022-09-15T17:32:36.032Z,17.50
2022-09-15T17:35:12.329Z,17.50
2022-09-15T17:37:44.031Z,17.50
2022-09-15T17:40:15.777Z,17.50
2022-09-15T17:42:46.934Z,17.60
2022-09-15T17:45:19.918Z,17.50
2022-09-15T17:47:57.357Z,17.50
2022-09-15T17:50:30.676Z,17.50
2022-09-15T17:53:01.958Z,17.40
2022-09-15T17:55:34.447Z,17.50
2022-09-15T17:58:06.019Z,17.40
2022-09-15T18:00:39.060Z,17.50
2022-09-15T18:03:19.336Z,17.50
2022-09-15T18:05:51.313Z,17.50
2022-09-15T18:08:22.653Z,17.50
2022-09-15T18:10:54.350Z,17.50
2022-09-15T18:13:27.096Z,17.50
2022-09-15T18:15:58.804Z,17.50
2022-09-15T18:18:32.846Z,17.50
2022-09-15T18:21:04.205Z,17.40
2022-09-15T18:23:35.386Z,17.40
2022-09-15T18:26:06.726Z,17.40
2022-09-15T18:28:37.721Z,17.40
2022-09-15T18:31:09.287Z,17.40
2022-09-15T18:33:43.054Z,17.30
2022-09-15T18:36:15.119Z,17.30
2022-09-15T18:38:46.329Z,17.30
2022-09-15T18:41:17.462Z,17.30
2022-09-15T18:43:49.703Z,17.30
2022-09-15T18:46:21.053Z,17.30
2022-09-15T18:48:54.926Z,17.20
2022-09-15T18:51:34.935Z,17.20
2022-09-15T18:54:17.067Z,17.20
2022-09-15T18:56:48.510Z,17.20
2022-09-15T18:59:19.705Z,17.20
2022-09-15T19:01:51.454Z,17.20
2022-09-15T19:04:28.455Z,17.20
2022-09-15T19:07:03.050Z,17.20
2022-09-15T19:09:34.469Z,17.20
2022-09-15T19:12:06.457Z,17.20
2022-09-15T19:14:37.498Z,17.20
2022-09-15T19:17:08.929Z,17.10
2022-09-15T19:19:43.160Z,17.20
2022-09-15T19:22:14.377Z,17.10
2022-09-15T19:24:45.441Z,17.10
2022-09-15T19:27:16.695Z,17.10
2022-09-15T19:29:47.990Z,17.10
2022-09-15T19:32:19.857Z,17.10
2022-09-15T19:34:53.606Z,17.00
2022-09-15T19:37:24.838Z,17.00
2022-09-15T19:39:56.519Z,17.00
2022-09-15T19:42:28.503Z,17.00
2022-09-15T19:44:59.358Z,17.00
2022-09-15T19:47:30.510Z,17.00
2022-09-15T19:50:04.455Z,17.00
2022-09-15T19:52:35.747Z,17.00
2022-09-15T19:55:08.250Z,17.00
2022-09-15T19:57:40.964Z,16.90
2022-09-15T20:00:13.536Z,17.00
2022-09-15T20:02:45.076Z,16.90
2022-09-15T20:05:33.729Z,16.90
2022-09-15T20:08:05.323Z,17.00
2022-09-15T20:10:36.493Z,17.00
2022-09-15T20:13:07.730Z,17.00
2022-09-15T20:15:40.042Z,16.90
2022-09-15T20:18:13.838Z,17.00
2022-09-15T20:20:47.526Z,17.00
2022-09-15T20:23:18.738Z,17.00
2022-09-15T20:25:58.907Z,17.00
2022-09-15T20:28:31.437Z,16.90
2022-09-15T20:31:03.599Z,16.90
2022-09-15T20:33:35.666Z,16.90
2022-09-15T20:36:10.633Z,16.90
2022-09-15T20:38:42.750Z,16.90
2022-09-15T20:41:14.330Z,16.90
2022-09-15T20:43:45.759Z,16.90
2022-09-15T20:46:18.099Z,16.90
2022-09-15T20:48:49.718Z,16.80
2022-09-15T20:51:24.220Z,16.80
2022-09-15T20:53:56.504Z,16.80
2022-09-15T20:56:27.843Z,16.80
2022-09-15T20:58:59.925Z,16.80
2022-09-15T21:01:31.981Z,16.80
2022-09-15T21:04:03.299Z,16.80
2022-09-15T21:06:37.030Z,16.80
2022-09-15T21:09:08.830Z,16.70
2022-09-15T21:11:40.011Z,16.70
2022-09-15T21:14:11.000Z,16.70
2022-09-15T21:16:41.912Z,16.80
2022-09-15T21:19:13.112Z,16.70
2022-09-15T21:21:46.506Z,16.80
2022-09-15T21:24:17.647Z,16.70
2022-09-15T21:27:00.847Z,16.70
2022-09-15T21:29:32.426Z,16.70
2022-09-15T21:32:03.258Z,16.70
2022-09-15T21:34:34.601Z,16.60
2022-09-15T21:37:08.070Z,16.60
2022-09-15T21:39:39.160Z,16.60
2022-09-15T21:42:13.020Z,16.50
2022-09-15T21:44:44.145Z,16.60
2022-09-15T21:47:14.941Z,16.60
2022-09-15T21:49:45.981Z,16.70
2022-09-15T21:52:19.589Z,16.60
2022-09-15T21:54:50.880Z,16.60
2022-09-15T21:57:21.929Z,16.70
2022-09-15T21:59:53.229Z,16.70
2022-09-15T22:02:24.444Z,16.60
2022-09-15T22:04:56.741Z,16.60
2022-09-15T22:07:30.772Z,16.60
2022-09-15T22:10:01.947Z,16.60
2022-09-15T22:12:32.716Z,16.60
2022-09-15T22:15:03.911Z,16.50
2022-09-15T22:17:34.905Z,16.50
2022-09-15T22:20:07.851Z,16.50
2022-09-15T22:22:41.224Z,16.50
2022-09-15T22:25:12.456Z,16.50
2022-09-15T22:27:43.244Z,16.50
2022-09-15T22:30:14.876Z,16.50
2022-09-15T22:32:45.740Z,16.50
2022-09-15T22:35:17.514Z,16.50
2022-09-15T22:37:50.947Z,16.50
2022-09-15T22:40:22.035Z,16.50
2022-09-15T22:42:53.035Z,16.50
2022-09-15T22:45:24.523Z,16.40
2022-09-15T22:47:55.299Z,16.40
2022-09-15T22:50:26.253Z,16.40
2022-09-15T22:52:59.518Z,16.40
2022-09-15T22:55:30.735Z,16.40
2022-09-15T22:58:01.671Z,16.40
2022-09-15T23:00:33.105Z,16.40
2022-09-15T23:03:03.819Z,16.40
2022-09-15T23:05:35.006Z,16.40
2022-09-15T23:08:08.462Z,16.30
2022-09-15T23:10:39.471Z,16.40
2022-09-15T23:13:11.256Z,16.30
2022-09-15T23:15:42.310Z,16.30
2022-09-15T23:18:13.135Z,16.40
2022-09-15T23:20:44.960Z,16.30
2022-09-15T23:23:18.354Z,16.30
2022-09-15T23:25:49.322Z,16.30
2022-09-15T23:28:20.072Z,16.20
2022-09-15T23:30:54.149Z,16.30
2022-09-15T23:33:25.810Z,16.30
2022-09-15T23:35:57.362Z,16.30
2022-09-15T23:38:30.670Z,16.20
2022-09-15T23:41:01.754Z,16.30
2022-09-15T23:43:33.406Z,16.30
2022-09-15T23:46:04.691Z,16.30
2022-09-15T23:48:35.467Z,16.30
2022-09-15T23:51:06.964Z,16.30
2022-09-15T23:53:40.323Z,16.40
2022-09-15T23:56:11.371Z,16.30
2022-09-15T23:58:42.125Z,16.30
